createdAt,value
2017-10-29T00:00:48.284Z,1002.42
2017-10-29T00:01:48.582Z,1002.41
2017-10-29T00:02:48.114Z,1002.41
2017-10-29T00:03:48.458Z,1002.40
2017-10-29T00:04:47.983Z,1002.30
2017-10-29T00:05:47.890Z,1002.34
2017-10-29T00:06:48.080Z,1002.18
2017-10-29T00:07:48.822Z,1002.27
2017-10-29T00:08:47.835Z,1002.25
2017-10-29T00:09:48.515Z,1002.17
2017-10-29T00:10:47.936Z,1002.30
2017-10-29T00:11:48.414Z,1002.26
2017-10-29T00:12:47.531Z,1002.13
2017-10-29T00:13:47.525Z,1002.11
2017-10-29T00:14:47.863Z,1002.10
2017-10-29T00:15:48.285Z,1002.11
2017-10-29T00:16:48.248Z,1002.14
2017-10-29T00:17:47.877Z,1001.90
2017-10-29T00:18:48.322Z,1001.97
2017-10-29T00:19:48.311Z,1002.03
2017-10-29T00:20:48.814Z,1002.08
2017-10-29T00:21:48.031Z,1002.18
2017-10-29T00:22:48.390Z,1002.00
2017-10-29T00:23:47.914Z,1001.96
2017-10-29T00:24:48.267Z,1001.94
2017-10-29T00:25:48.202Z,1002.02
2017-10-29T00:26:48.729Z,1001.89
2017-10-29T00:27:48.317Z,1001.89
2017-10-29T00:28:47.831Z,1001.79
2017-10-29T00:29:48.222Z,1001.79
2017-10-29T00:30:47.675Z,1001.80
2017-10-29T00:31:47.651Z,1001.76
2017-10-29T00:32:48.151Z,1001.70
2017-10-29T00:33:48.248Z,1001.79
2017-10-29T00:34:47.496Z,1001.78
2017-10-29T00:35:47.912Z,1001.71
2017-10-29T00:36:48.146Z,1001.61
2017-10-29T00:37:48.513Z,1001.57
2017-10-29T00:38:47.764Z,1001.66
2017-10-29T00:39:48.066Z,1001.58
2017-10-29T00:40:48.339Z,1001.65
2017-10-29T00:41:48.483Z,1001.56
2017-10-29T00:42:47.659Z,1001.66
2017-10-29T00:43:47.797Z,1001.61
2017-10-29T00:44:48.057Z,1001.49
2017-10-29T00:45:47.748Z,1001.61
2017-10-29T00:46:47.579Z,1001.49
2017-10-29T00:47:47.711Z,1001.54
2017-10-29T00:48:47.813Z,1001.57
2017-10-29T00:49:48.043Z,1001.50
2017-10-29T00:50:48.498Z,1001.51
2017-10-29T00:51:47.442Z,1001.42
2017-10-29T00:52:47.721Z,1001.47
2017-10-29T00:53:47.704Z,1001.38
2017-10-29T00:54:47.675Z,1001.46
2017-10-29T00:55:48.353Z,1001.49
2017-10-29T00:56:48.780Z,1001.19
2017-10-29T00:57:47.897Z,1001.19
2017-10-29T00:58:48.199Z,1001.45
2017-10-29T00:59:48.419Z,1001.23
2017-10-29T01:00:48.739Z,1001.29
2017-10-29T01:01:48.678Z,1001.20
2017-10-29T01:02:47.914Z,1001.20
2017-10-29T01:03:47.969Z,1001.18
2017-10-29T01:04:47.525Z,1001.20
2017-10-29T01:05:47.434Z,1001.01
2017-10-29T01:06:47.888Z,1001.15
2017-10-29T01:07:47.697Z,1001.05
2017-10-29T01:08:47.393Z,1001.18
2017-10-29T01:09:47.596Z,1001.10
2017-10-29T01:10:47.394Z,1001.27
2017-10-29T01:11:48.953Z,1001.10
2017-10-29T01:12:47.719Z,1000.96
2017-10-29T01:13:48.127Z,1001.05
2017-10-29T01:14:48.532Z,1001.01
2017-10-29T01:15:48.154Z,1001.04
2017-10-29T01:16:48.168Z,1000.97
2017-10-29T01:17:48.245Z,1000.86
2017-10-29T01:18:48.134Z,1000.90
2017-10-29T01:19:48.336Z,1000.90
2017-10-29T01:20:48.567Z,1000.95
2017-10-29T01:21:47.926Z,1000.79
2017-10-29T01:22:48.832Z,1000.78
2017-10-29T01:23:48.397Z,1000.80
2017-10-29T01:24:48.551Z,1000.82
2017-10-29T01:25:47.784Z,1000.83
2017-10-29T01:26:47.461Z,1000.80
2017-10-29T01:27:47.664Z,1000.88
2017-10-29T01:28:48.228Z,1000.89
2017-10-29T01:29:48.011Z,1000.95
2017-10-29T01:30:47.839Z,1000.84
2017-10-29T01:31:47.776Z,1000.91
2017-10-29T01:32:47.834Z,1000.95
2017-10-29T01:33:47.688Z,1000.77
2017-10-29T01:34:47.511Z,1000.88
2017-10-29T01:35:47.740Z,1000.71
2017-10-29T01:36:47.590Z,1000.69
2017-10-29T01:37:48.541Z,1000.75
2017-10-29T01:38:47.366Z,1000.52
2017-10-29T01:39:49.753Z,1000.72
2017-10-29T01:40:48.429Z,1000.67
2017-10-29T01:41:48.293Z,1000.70
2017-10-29T01:42:48.908Z,1000.65
2017-10-29T01:43:48.345Z,1000.58
2017-10-29T01:44:49.919Z,1000.42
2017-10-29T01:45:47.335Z,1000.59
2017-10-29T01:46:48.043Z,1000.53
2017-10-29T01:47:48.392Z,1000.48
2017-10-29T01:48:48.329Z,1000.40
2017-10-29T01:49:49.838Z,1000.49
2017-10-29T01:50:47.991Z,1000.46
2017-10-29T01:51:48.232Z,1000.47
2017-10-29T01:52:48.642Z,1000.38
2017-10-29T01:53:47.869Z,1000.39
2017-10-29T01:54:48.689Z,1000.29
2017-10-29T01:55:47.929Z,1000.34
2017-10-29T01:56:47.948Z,1000.23
2017-10-29T01:57:48.119Z,1000.30
2017-10-29T01:58:48.653Z,1000.31
2017-10-29T01:59:49.105Z,1000.26
2017-10-29T02:00:48.493Z,1000.44
2017-10-29T02:01:48.720Z,1000.11
2017-10-29T02:02:48.496Z,1000.18
2017-10-29T02:03:48.292Z,1000.21
2017-10-29T02:04:48.453Z,1000.29
2017-10-29T02:05:48.870Z,1000.26
2017-10-29T02:06:48.730Z,1000.28
2017-10-29T02:07:50.782Z,1000.27
2017-10-29T02:08:49.516Z,1000.33
2017-10-29T02:09:47.996Z,1000.28
2017-10-29T02:10:48.176Z,1000.37
2017-10-29T02:11:47.645Z,1000.28
2017-10-29T02:12:47.842Z,1000.38
2017-10-29T02:13:47.920Z,1000.19
2017-10-29T02:14:48.020Z,1000.38
2017-10-29T02:15:48.220Z,1000.50
2017-10-29T02:16:48.503Z,1000.35
2017-10-29T02:17:48.547Z,1000.32
2017-10-29T02:18:47.852Z,1000.42
2017-10-29T02:19:48.720Z,1000.38
2017-10-29T02:20:47.793Z,1000.18
2017-10-29T02:21:47.295Z,1000.47
2017-10-29T02:22:48.095Z,1000.48
2017-10-29T02:23:48.272Z,1000.37
2017-10-29T02:24:48.478Z,1000.08
2017-10-29T02:25:47.285Z,1000.35
2017-10-29T02:26:48.667Z,1000.39
2017-10-29T02:27:47.599Z,1000.36
2017-10-29T02:28:47.786Z,1000.39
2017-10-29T02:29:47.739Z,1000.41
2017-10-29T02:30:47.521Z,1000.42
2017-10-29T02:31:47.318Z,1000.38
2017-10-29T02:32:49.115Z,1000.46
2017-10-29T02:33:48.894Z,1000.47
2017-10-29T02:34:48.215Z,1000.51
2017-10-29T02:35:48.035Z,1000.67
2017-10-29T02:36:47.876Z,1000.87
2017-10-29T02:37:47.854Z,1000.93
2017-10-29T02:38:47.650Z,1000.71
2017-10-29T02:39:47.955Z,1000.92
2017-10-29T02:40:47.953Z,1000.81
2017-10-29T02:41:48.218Z,1000.92
2017-10-29T02:42:48.557Z,1001.04
2017-10-29T02:43:48.818Z,1000.89
2017-10-29T02:44:47.715Z,1000.96
2017-10-29T02:45:48.122Z,1000.73
2017-10-29T02:46:48.317Z,1000.80
2017-10-29T02:47:48.417Z,1000.66
2017-10-29T02:48:48.007Z,1001.07
2017-10-29T02:49:47.849Z,1000.95
2017-10-29T02:50:47.700Z,1000.81
2017-10-29T02:51:47.576Z,1000.97
2017-10-29T02:52:48.475Z,1001.03
2017-10-29T02:53:49.188Z,1000.90
2017-10-29T02:54:48.443Z,1000.62
2017-10-29T02:55:47.423Z,1000.85
2017-10-29T02:56:47.600Z,1000.90
2017-10-29T02:57:48.089Z,1000.85
2017-10-29T02:58:48.337Z,1000.87
2017-10-29T02:59:48.104Z,1000.80
2017-10-29T03:00:48.223Z,1000.78
2017-10-29T03:01:48.483Z,1000.88
2017-10-29T03:02:47.706Z,1000.82
2017-10-29T03:03:48.507Z,1000.74
2017-10-29T03:04:47.320Z,1000.92
2017-10-29T03:05:48.152Z,1000.81
2017-10-29T03:06:48.154Z,1000.68
2017-10-29T03:07:48.205Z,1000.64
2017-10-29T03:08:48.223Z,1000.94
2017-10-29T03:09:48.085Z,1000.91
2017-10-29T03:10:47.929Z,1000.79
2017-10-29T03:11:47.827Z,1000.91
2017-10-29T03:12:47.953Z,1000.96
2017-10-29T03:13:48.901Z,1000.99
2017-10-29T03:14:48.665Z,1001.00
2017-10-29T03:15:48.910Z,1001.06
2017-10-29T03:16:49.303Z,1001.12
2017-10-29T03:17:48.443Z,1001.08
2017-10-29T03:18:49.208Z,1001.15
2017-10-29T03:19:49.073Z,1001.20
2017-10-29T03:20:48.705Z,1001.06
2017-10-29T03:21:50.436Z,1001.28
2017-10-29T03:22:49.399Z,1001.12
2017-10-29T03:23:48.662Z,1001.15
2017-10-29T03:24:49.013Z,1001.24
2017-10-29T03:25:49.214Z,1001.20
2017-10-29T03:26:48.367Z,1001.34
2017-10-29T03:27:49.945Z,1001.37
2017-10-29T03:28:48.426Z,1001.39
2017-10-29T03:29:49.022Z,1001.34
2017-10-29T03:30:49.574Z,1001.44
2017-10-29T03:31:47.321Z,1001.38
2017-10-29T03:32:48.461Z,1001.43
2017-10-29T03:33:49.131Z,1001.41
2017-10-29T03:34:48.830Z,1001.39
2017-10-29T03:35:50.822Z,1001.44
2017-10-29T03:36:48.115Z,1001.30
2017-10-29T03:37:49.847Z,1001.14
2017-10-29T03:38:50.190Z,1001.64
2017-10-29T03:39:59.049Z,1001.44
2017-10-29T03:40:57.952Z,1001.50
2017-10-29T03:42:07.037Z,1001.15
2017-10-29T03:44:02.775Z,1001.68
2017-10-29T03:44:52.650Z,1001.27
2017-10-29T03:46:00.155Z,1001.54
2017-10-29T03:48:09.256Z,1001.65
2017-10-29T03:50:17.541Z,1001.61
2017-10-29T03:51:18.948Z,1001.67
2017-10-29T03:52:15.949Z,1001.66
2017-10-29T03:53:18.055Z,1001.62
2017-10-29T03:54:18.286Z,1001.73
2017-10-29T03:55:16.930Z,1001.67
2017-10-29T03:56:18.215Z,1001.62
2017-10-29T03:57:16.228Z,1001.94
2017-10-29T03:58:18.955Z,1001.78
2017-10-29T03:59:17.329Z,1001.95
2017-10-29T04:00:16.478Z,1001.97
2017-10-29T04:01:16.572Z,1002.08
2017-10-29T04:02:15.425Z,1002.01
2017-10-29T04:03:19.178Z,1002.17
2017-10-29T04:04:18.338Z,1002.04
2017-10-29T04:05:17.542Z,1002.15
2017-10-29T04:06:17.055Z,1002.11
2017-10-29T04:07:16.333Z,1002.08
2017-10-29T04:08:18.181Z,1002.24
2017-10-29T04:09:19.317Z,1002.20
2017-10-29T04:10:19.104Z,1002.22
2017-10-29T04:11:18.122Z,1002.39
2017-10-29T04:12:17.560Z,1002.25
2017-10-29T04:13:17.397Z,1002.24
2017-10-29T04:14:17.024Z,1002.29
2017-10-29T04:15:19.544Z,1002.36
2017-10-29T04:16:18.187Z,1002.29
2017-10-29T04:17:21.276Z,1002.35
2017-10-29T04:18:16.598Z,1002.43
2017-10-29T04:19:17.404Z,1002.39
2017-10-29T04:20:17.652Z,1002.40
2017-10-29T04:21:24.911Z,1002.30
2017-10-29T04:22:18.566Z,1002.29
2017-10-29T04:23:16.540Z,1002.39
2017-10-29T04:24:16.001Z,1002.60
2017-10-29T04:25:15.928Z,1002.46
2017-10-29T04:26:31.977Z,1002.55
2017-10-29T04:28:18.660Z,1002.53
2017-10-29T04:29:17.697Z,1002.47
2017-10-29T04:30:15.948Z,1002.71
2017-10-29T04:31:16.255Z,1002.52
2017-10-29T04:32:16.045Z,1002.71
2017-10-29T04:33:16.318Z,1002.69
2017-10-29T04:34:15.386Z,1002.51
2017-10-29T04:35:16.194Z,1002.68
2017-10-29T04:36:16.580Z,1002.70
2017-10-29T04:37:16.752Z,1002.53
2017-10-29T04:38:16.212Z,1002.85
2017-10-29T04:39:16.367Z,1002.93
2017-10-29T04:40:16.299Z,1002.83
2017-10-29T04:41:16.372Z,1002.79
2017-10-29T04:42:16.270Z,1002.95
2017-10-29T04:43:16.395Z,1002.74
2017-10-29T04:44:16.585Z,1003.07
2017-10-29T04:45:15.786Z,1003.13
2017-10-29T04:46:15.694Z,1003.32
2017-10-29T04:47:16.246Z,1003.20
2017-10-29T04:48:16.608Z,1003.18
2017-10-29T04:49:16.410Z,1003.17
2017-10-29T04:50:16.461Z,1003.25
2017-10-29T04:51:15.992Z,1003.18
2017-10-29T04:52:15.808Z,1003.35
2017-10-29T04:53:15.744Z,1003.19
2017-10-29T04:54:16.225Z,1003.41
2017-10-29T04:55:16.363Z,1003.25
2017-10-29T04:56:16.544Z,1003.24
2017-10-29T04:57:16.601Z,1003.37
2017-10-29T04:58:16.637Z,1003.23
2017-10-29T04:59:16.490Z,1003.41
2017-10-29T05:00:15.852Z,1003.60
2017-10-29T05:01:16.166Z,1003.29
2017-10-29T05:02:16.593Z,1003.46
2017-10-29T05:03:16.417Z,1003.34
2017-10-29T05:04:17.003Z,1003.24
2017-10-29T05:05:16.233Z,1003.47
2017-10-29T05:06:16.635Z,1003.39
2017-10-29T05:07:15.830Z,1003.57
2017-10-29T05:08:16.149Z,1003.42
2017-10-29T05:09:16.560Z,1003.42
2017-10-29T05:10:16.189Z,1003.49
2017-10-29T05:11:16.816Z,1003.56
2017-10-29T05:12:15.931Z,1003.41
2017-10-29T05:13:16.466Z,1003.40
2017-10-29T05:14:16.848Z,1003.50
2017-10-29T05:15:15.895Z,1003.68
2017-10-29T05:16:16.616Z,1003.55
2017-10-29T05:17:15.392Z,1003.41
2017-10-29T05:18:16.493Z,1003.47
2017-10-29T05:19:16.285Z,1003.57
2017-10-29T05:20:16.031Z,1003.68
2017-10-29T05:21:16.475Z,1003.71
2017-10-29T05:22:16.762Z,1003.67
2017-10-29T05:23:15.639Z,1003.84
2017-10-29T05:24:15.467Z,1003.72
2017-10-29T05:25:16.312Z,1003.87
2017-10-29T05:26:17.225Z,1003.76
2017-10-29T05:27:16.285Z,1003.82
2017-10-29T05:28:16.206Z,1003.88
2017-10-29T05:29:15.966Z,1003.93
2017-10-29T05:30:16.287Z,1003.76
2017-10-29T05:31:16.233Z,1004.05
2017-10-29T05:32:16.644Z,1003.94
2017-10-29T05:33:15.883Z,1004.00
2017-10-29T05:34:15.890Z,1004.20
2017-10-29T05:35:16.109Z,1004.10
2017-10-29T05:36:15.773Z,1004.08
2017-10-29T05:37:15.391Z,1003.87
2017-10-29T05:38:16.347Z,1003.95
2017-10-29T05:39:16.512Z,1004.09
2017-10-29T05:40:16.560Z,1004.07
2017-10-29T05:41:15.981Z,1004.09
2017-10-29T05:42:15.875Z,1004.02
2017-10-29T05:43:16.204Z,1003.99
2017-10-29T05:44:15.561Z,1004.07
2017-10-29T05:45:16.395Z,1003.90
2017-10-29T05:46:16.228Z,1004.21
2017-10-29T05:47:16.060Z,1004.28
2017-10-29T05:48:16.582Z,1004.11
2017-10-29T05:49:15.520Z,1004.35
2017-10-29T05:50:16.260Z,1004.25
2017-10-29T05:51:16.805Z,1004.38
2017-10-29T05:52:15.594Z,1004.40
2017-10-29T05:53:15.462Z,1004.40
2017-10-29T05:54:17.178Z,1004.32
2017-10-29T05:55:15.873Z,1004.51
2017-10-29T05:56:16.886Z,1004.45
2017-10-29T05:57:16.221Z,1004.49
2017-10-29T05:58:16.432Z,1004.42
2017-10-29T05:59:16.867Z,1004.57
2017-10-29T06:00:16.386Z,1004.58
2017-10-29T06:01:15.562Z,1004.67
2017-10-29T06:02:16.842Z,1004.53
2017-10-29T06:03:16.097Z,1004.60
2017-10-29T06:04:16.345Z,1004.53
2017-10-29T06:05:16.588Z,1004.59
2017-10-29T06:06:16.733Z,1004.65
2017-10-29T06:07:16.884Z,1004.53
2017-10-29T06:08:16.357Z,1004.65
2017-10-29T06:09:16.614Z,1004.67
2017-10-29T06:10:15.546Z,1004.73
2017-10-29T06:11:16.859Z,1004.83
2017-10-29T06:12:15.848Z,1004.76
2017-10-29T06:13:16.342Z,1004.79
2017-10-29T06:14:16.310Z,1004.81
2017-10-29T06:15:16.282Z,1004.73
2017-10-29T06:16:15.815Z,1004.68
2017-10-29T06:17:17.583Z,1004.67
2017-10-29T06:18:16.550Z,1004.72
2017-10-29T06:19:15.933Z,1004.77
2017-10-29T06:20:15.796Z,1004.85
2017-10-29T06:21:16.501Z,1004.70
2017-10-29T06:22:16.806Z,1004.79
2017-10-29T06:23:16.173Z,1004.82
2017-10-29T06:24:16.135Z,1004.83
2017-10-29T06:25:16.418Z,1004.81
2017-10-29T06:26:16.821Z,1004.90
2017-10-29T06:27:16.089Z,1004.92
2017-10-29T06:28:16.845Z,1004.95
2017-10-29T06:29:16.936Z,1004.90
2017-10-29T06:30:16.467Z,1004.92
2017-10-29T06:31:16.035Z,1004.93
2017-10-29T06:32:17.158Z,1004.95
2017-10-29T06:33:16.782Z,1005.01
2017-10-29T06:34:17.096Z,1005.03
2017-10-29T06:35:15.708Z,1005.16
2017-10-29T06:36:15.757Z,1005.24
2017-10-29T06:37:15.578Z,1005.26
2017-10-29T06:38:16.164Z,1005.32
2017-10-29T06:39:16.822Z,1005.33
2017-10-29T06:40:15.801Z,1005.29
2017-10-29T06:41:16.338Z,1005.44
2017-10-29T06:42:16.046Z,1005.32
2017-10-29T06:43:16.409Z,1005.31
2017-10-29T06:44:17.024Z,1005.38
2017-10-29T06:45:16.749Z,1005.42
2017-10-29T06:46:16.657Z,1005.45
2017-10-29T06:47:16.863Z,1005.56
2017-10-29T06:48:17.635Z,1005.60
2017-10-29T06:49:16.374Z,1005.56
2017-10-29T06:50:16.654Z,1005.60
2017-10-29T06:51:16.159Z,1005.68
2017-10-29T06:52:16.140Z,1005.78
2017-10-29T06:53:16.704Z,1005.80
2017-10-29T06:54:16.593Z,1005.89
2017-10-29T06:55:16.719Z,1005.91
2017-10-29T06:56:16.908Z,1005.93
2017-10-29T06:57:16.400Z,1005.93
2017-10-29T06:58:16.555Z,1005.97
2017-10-29T06:59:15.908Z,1006.11
2017-10-29T07:00:17.071Z,1006.01
2017-10-29T07:01:16.464Z,1006.12
2017-10-29T07:02:16.974Z,1006.01
2017-10-29T07:03:17.134Z,1006.03
2017-10-29T07:04:16.789Z,1006.07
2017-10-29T07:05:15.996Z,1006.08
2017-10-29T07:06:16.566Z,1006.18
2017-10-29T07:07:15.841Z,1006.08
2017-10-29T07:08:16.229Z,1006.33
2017-10-29T07:09:16.735Z,1006.16
2017-10-29T07:10:15.632Z,1006.30
2017-10-29T07:11:15.693Z,1006.28
2017-10-29T07:12:15.906Z,1006.39
2017-10-29T07:13:16.661Z,1006.37
2017-10-29T07:14:17.400Z,1006.36
2017-10-29T07:15:16.292Z,1006.40
2017-10-29T07:16:15.963Z,1006.48
2017-10-29T07:17:16.044Z,1006.44
2017-10-29T07:18:16.351Z,1006.52
2017-10-29T07:19:15.876Z,1006.57
2017-10-29T07:20:15.800Z,1006.57
2017-10-29T07:21:16.249Z,1006.65
2017-10-29T07:22:16.295Z,1006.58
2017-10-29T07:23:16.279Z,1006.64
2017-10-29T07:24:16.225Z,1006.62
2017-10-29T07:25:16.453Z,1006.60
2017-10-29T07:26:16.664Z,1006.65
2017-10-29T07:27:16.030Z,1006.67
2017-10-29T07:28:16.548Z,1006.61
2017-10-29T07:29:16.680Z,1006.66
2017-10-29T07:30:15.743Z,1006.69
2017-10-29T07:31:16.025Z,1006.71
2017-10-29T07:32:16.558Z,1006.68
2017-10-29T07:33:15.754Z,1006.73
2017-10-29T07:34:16.667Z,1006.84
2017-10-29T07:35:16.126Z,1006.71
2017-10-29T07:36:16.458Z,1006.81
2017-10-29T07:37:16.661Z,1006.83
2017-10-29T07:38:17.157Z,1006.75
2017-10-29T07:39:16.207Z,1006.81
2017-10-29T07:40:15.959Z,1006.88
2017-10-29T07:41:16.529Z,1006.87
2017-10-29T07:42:16.860Z,1006.92
2017-10-29T07:43:16.022Z,1007.05
2017-10-29T07:44:16.556Z,1007.15
2017-10-29T07:45:16.196Z,1007.22
2017-10-29T07:46:16.741Z,1007.22
2017-10-29T07:47:16.006Z,1007.25
2017-10-29T07:48:16.151Z,1007.01
2017-10-29T07:49:17.115Z,1007.16
2017-10-29T07:50:16.808Z,1007.26
2017-10-29T07:51:16.280Z,1007.27
2017-10-29T07:52:16.522Z,1007.36
2017-10-29T07:53:16.541Z,1007.34
2017-10-29T07:54:16.091Z,1007.33
2017-10-29T07:55:16.568Z,1007.44
2017-10-29T07:56:17.097Z,1007.38
2017-10-29T07:57:15.955Z,1007.38
2017-10-29T07:58:15.970Z,1007.38
2017-10-29T07:59:16.066Z,1007.45
2017-10-29T08:00:16.322Z,1007.50
2017-10-29T08:01:16.406Z,1007.54
2017-10-29T08:02:16.996Z,1007.59
2017-10-29T08:03:15.919Z,1007.59
2017-10-29T08:04:17.103Z,1007.52
2017-10-29T08:05:16.468Z,1007.60
2017-10-29T08:06:16.507Z,1007.74
2017-10-29T08:07:15.833Z,1007.80
2017-10-29T08:08:16.124Z,1007.69
2017-10-29T08:09:16.216Z,1007.66
2017-10-29T08:10:16.605Z,1007.78
2017-10-29T08:11:15.675Z,1007.77
2017-10-29T08:12:15.932Z,1007.80
2017-10-29T08:13:16.663Z,1007.77
2017-10-29T08:14:16.891Z,1007.96
2017-10-29T08:15:16.933Z,1007.84
2017-10-29T08:16:17.234Z,1007.86
2017-10-29T08:17:16.444Z,1007.92
2017-10-29T08:18:17.037Z,1007.98
2017-10-29T08:19:16.254Z,1007.94
2017-10-29T08:20:16.313Z,1007.96
2017-10-29T08:21:17.369Z,1007.95
2017-10-29T08:22:16.620Z,1007.93
2017-10-29T08:23:17.629Z,1007.94
2017-10-29T08:24:16.482Z,1007.94
2017-10-29T08:25:17.375Z,1008.03
2017-10-29T08:26:16.449Z,1008.05
2017-10-29T08:27:16.180Z,1007.98
2017-10-29T08:28:16.283Z,1008.00
2017-10-29T08:29:16.588Z,1008.04
2017-10-29T08:30:17.354Z,1008.10
2017-10-29T08:31:19.143Z,1008.14
2017-10-29T08:32:16.727Z,1008.14
2017-10-29T08:33:15.973Z,1008.15
2017-10-29T08:34:16.434Z,1008.17
2017-10-29T08:35:16.230Z,1008.15
2017-10-29T08:36:16.452Z,1008.19
2017-10-29T08:37:16.137Z,1008.30
2017-10-29T08:38:17.520Z,1008.27
2017-10-29T08:39:15.692Z,1008.28
2017-10-29T08:40:16.244Z,1008.25
2017-10-29T08:41:16.830Z,1008.31
2017-10-29T08:42:15.827Z,1008.21
2017-10-29T08:43:16.649Z,1008.34
2017-10-29T08:44:16.304Z,1008.31
2017-10-29T08:45:18.628Z,1008.38
2017-10-29T08:46:16.022Z,1008.44
2017-10-29T08:47:16.815Z,1008.33
2017-10-29T08:48:23.784Z,1008.44
2017-10-29T08:49:16.964Z,1008.42
2017-10-29T08:50:16.665Z,1008.48
2017-10-29T08:51:16.673Z,1008.43
2017-10-29T08:52:16.307Z,1008.41
2017-10-29T08:53:16.612Z,1008.45
2017-10-29T08:54:17.475Z,1008.36
2017-10-29T08:55:17.513Z,1008.44
2017-10-29T08:56:16.598Z,1008.36
2017-10-29T08:57:16.871Z,1008.50
2017-10-29T08:58:16.495Z,1008.35
2017-10-29T08:59:17.634Z,1008.67
2017-10-29T09:00:15.980Z,1008.62
2017-10-29T09:01:16.788Z,1008.61
2017-10-29T09:02:16.536Z,1008.75
2017-10-29T09:03:16.962Z,1008.78
2017-10-29T09:04:16.967Z,1008.95
2017-10-29T09:05:16.423Z,1008.76
2017-10-29T09:06:16.584Z,1008.83
2017-10-29T09:07:16.108Z,1008.83
2017-10-29T09:08:16.199Z,1008.66
2017-10-29T09:09:17.111Z,1008.73
2017-10-29T09:10:16.838Z,1008.82
2017-10-29T09:11:16.597Z,1008.78
2017-10-29T09:12:16.741Z,1008.78
2017-10-29T09:13:16.499Z,1008.74
2017-10-29T09:14:16.072Z,1008.99
2017-10-29T09:15:17.045Z,1008.89
2017-10-29T09:16:16.451Z,1008.92
2017-10-29T09:17:17.631Z,1009.08
2017-10-29T09:18:16.260Z,1009.01
2017-10-29T09:19:16.542Z,1009.11
2017-10-29T09:20:17.378Z,1009.03
2017-10-29T09:21:17.158Z,1009.08
2017-10-29T09:22:17.837Z,1009.13
2017-10-29T09:23:16.635Z,1009.23
2017-10-29T09:24:15.890Z,1009.16
2017-10-29T09:25:17.065Z,1009.10
2017-10-29T09:26:16.912Z,1009.16
2017-10-29T09:27:17.349Z,1009.14
2017-10-29T09:28:16.841Z,1009.08
2017-10-29T09:29:16.255Z,1009.09
2017-10-29T09:30:17.187Z,1009.11
2017-10-29T09:31:16.153Z,1009.05
2017-10-29T09:32:17.601Z,1008.95
2017-10-29T09:33:16.864Z,1009.12
2017-10-29T09:34:16.278Z,1009.13
2017-10-29T09:35:18.058Z,1009.09
2017-10-29T09:36:16.558Z,1009.16
2017-10-29T09:37:16.994Z,1009.21
2017-10-29T09:38:16.617Z,1009.10
2017-10-29T09:39:17.732Z,1009.17
2017-10-29T09:40:16.814Z,1009.16
2017-10-29T09:41:16.671Z,1009.10
2017-10-29T09:42:15.980Z,1009.13
2017-10-29T09:43:16.758Z,1009.22
2017-10-29T09:44:16.202Z,1009.20
2017-10-29T09:45:16.926Z,1009.35
2017-10-29T09:46:17.470Z,1009.32
2017-10-29T09:47:17.296Z,1009.36
2017-10-29T09:48:17.395Z,1009.25
2017-10-29T09:49:17.979Z,1009.33
2017-10-29T09:50:17.112Z,1009.35
2017-10-29T09:51:17.872Z,1009.34
2017-10-29T09:52:16.692Z,1009.32
2017-10-29T09:53:17.003Z,1009.48
2017-10-29T09:54:16.952Z,1009.48
2017-10-29T09:55:16.895Z,1009.46
2017-10-29T09:56:17.437Z,1009.52
2017-10-29T09:57:17.156Z,1009.52
2017-10-29T09:58:18.155Z,1009.46
2017-10-29T09:59:19.387Z,1009.61
2017-10-29T10:00:16.853Z,1009.60
2017-10-29T10:01:16.768Z,1009.68
2017-10-29T10:02:16.587Z,1009.68
2017-10-29T10:03:16.568Z,1009.74
2017-10-29T10:04:16.335Z,1009.79
2017-10-29T10:05:17.195Z,1009.78
2017-10-29T10:06:17.127Z,1009.91
2017-10-29T10:07:17.490Z,1009.75
2017-10-29T10:08:17.090Z,1009.85
2017-10-29T10:09:16.935Z,1009.80
2017-10-29T10:10:16.775Z,1009.69
2017-10-29T10:11:16.319Z,1009.89
2017-10-29T10:12:17.036Z,1010.03
2017-10-29T10:13:16.595Z,1010.01
2017-10-29T10:14:17.437Z,1010.11
2017-10-29T10:15:18.251Z,1009.91
2017-10-29T10:16:16.787Z,1010.33
2017-10-29T10:17:17.074Z,1010.16
2017-10-29T10:18:16.925Z,1010.29
2017-10-29T10:19:17.019Z,1010.37
2017-10-29T10:20:16.556Z,1010.31
2017-10-29T10:21:17.133Z,1010.41
2017-10-29T10:22:17.117Z,1010.38
2017-10-29T10:23:16.522Z,1010.47
2017-10-29T10:24:16.345Z,1010.51
2017-10-29T10:25:16.171Z,1010.52
2017-10-29T10:26:16.768Z,1010.50
2017-10-29T10:27:17.146Z,1010.61
2017-10-29T10:28:17.982Z,1010.54
2017-10-29T10:29:17.288Z,1010.53
2017-10-29T10:30:18.063Z,1010.45
2017-10-29T10:31:16.961Z,1010.54
2017-10-29T10:32:17.083Z,1010.54
2017-10-29T10:33:19.174Z,1010.59
2017-10-29T10:34:18.321Z,1010.62
2017-10-29T10:35:17.328Z,1010.59
2017-10-29T10:36:51.560Z,1010.54
2017-10-29T10:38:19.260Z,1010.57
2017-10-29T10:39:21.178Z,1010.72
2017-10-29T10:40:20.628Z,1010.64
2017-10-29T10:41:21.909Z,1010.64
2017-10-29T10:42:18.479Z,1010.44
2017-10-29T10:43:18.286Z,1010.63
2017-10-29T10:44:17.118Z,1010.71
2017-10-29T10:45:20.261Z,1010.70
2017-10-29T10:46:18.268Z,1010.62
2017-10-29T10:47:21.158Z,1010.66
2017-10-29T10:48:19.886Z,1010.58
2017-10-29T10:49:21.034Z,1010.58
2017-10-29T10:50:18.211Z,1010.57
2017-10-29T10:51:16.870Z,1010.55
2017-10-29T10:52:16.378Z,1010.60
2017-10-29T10:53:18.360Z,1010.63
2017-10-29T10:54:19.989Z,1010.60
2017-10-29T10:55:19.106Z,1010.54
2017-10-29T10:56:17.159Z,1010.52
2017-10-29T10:57:17.015Z,1010.53
2017-10-29T10:58:16.945Z,1010.58
2017-10-29T10:59:18.690Z,1010.56
2017-10-29T11:00:21.117Z,1010.57
2017-10-29T11:01:21.611Z,1010.45
2017-10-29T11:02:17.508Z,1010.47
2017-10-29T11:03:17.487Z,1010.59
2017-10-29T11:04:18.800Z,1010.68
2017-10-29T11:05:19.682Z,1010.85
2017-10-29T11:06:18.619Z,1011.00
2017-10-29T11:07:17.567Z,1011.12
2017-10-29T11:08:24.233Z,1011.22
2017-10-29T11:10:18.597Z,1011.46
2017-10-29T11:11:18.894Z,1011.26
2017-10-29T11:12:22.594Z,1011.29
2017-10-29T11:13:19.286Z,1011.34
2017-10-29T11:14:19.450Z,1011.28
2017-10-29T11:15:18.709Z,1011.28
2017-10-29T11:16:21.053Z,1011.32
2017-10-29T11:17:19.993Z,1011.35
2017-10-29T11:18:18.999Z,1011.23
2017-10-29T11:19:17.855Z,1011.33
2017-10-29T11:21:15.894Z,1011.35
2017-10-29T11:23:23.998Z,1011.28
2017-10-29T11:24:26.971Z,1011.37
2017-10-29T11:25:33.776Z,1011.24
2017-10-29T11:26:26.950Z,1011.33
2017-10-29T11:27:24.913Z,1011.38
2017-10-29T11:28:27.585Z,1011.40
2017-10-29T11:29:26.393Z,1011.34
2017-10-29T11:30:26.029Z,1011.35
2017-10-29T11:31:28.827Z,1011.39
2017-10-29T11:32:23.340Z,1011.37
2017-10-29T11:33:24.754Z,1011.43
2017-10-29T11:34:24.106Z,1011.43
2017-10-29T11:35:23.908Z,1011.38
2017-10-29T11:36:23.944Z,1011.42
2017-10-29T11:37:23.682Z,1011.36
2017-10-29T11:38:23.702Z,1011.45
2017-10-29T11:39:24.602Z,1011.44
2017-10-29T11:41:08.609Z,1011.43
2017-10-29T11:41:55.704Z,1011.52
2017-10-29T11:43:00.019Z,1011.50
2017-10-29T11:43:58.467Z,1011.49
2017-10-29T11:44:57.175Z,1011.37
2017-10-29T11:45:57.094Z,1011.38
2017-10-29T11:46:57.064Z,1011.44
2017-10-29T11:48:12.068Z,1011.48
2017-10-29T11:48:55.259Z,1011.48
2017-10-29T11:49:56.100Z,1011.43
2017-10-29T11:50:55.215Z,1011.46
2017-10-29T11:51:56.135Z,1011.44
2017-10-29T11:52:56.285Z,1011.49
2017-10-29T11:53:56.337Z,1011.52
2017-10-29T11:54:56.803Z,1011.49
2017-10-29T11:55:55.785Z,1011.48
2017-10-29T11:56:55.668Z,1011.47
2017-10-29T11:57:55.784Z,1011.47
2017-10-29T11:58:55.670Z,1011.50
2017-10-29T11:59:55.198Z,1011.51
2017-10-29T12:00:56.567Z,1011.64
2017-10-29T12:01:55.947Z,1011.60
2017-10-29T12:02:56.722Z,1011.69
2017-10-29T12:03:55.610Z,1011.65
2017-10-29T12:04:59.609Z,1011.75
2017-10-29T12:05:55.332Z,1011.51
2017-10-29T12:06:57.423Z,1011.87
2017-10-29T12:07:55.741Z,1011.89
2017-10-29T12:08:55.344Z,1012.17
2017-10-29T12:09:56.068Z,1012.16
2017-10-29T12:10:55.528Z,1012.29
2017-10-29T12:11:57.026Z,1012.05
2017-10-29T12:12:56.284Z,1011.80
2017-10-29T12:13:56.001Z,1011.95
2017-10-29T12:14:55.377Z,1011.99